Time;durP1;ratioP1;P1;durP2;ratioP2;P2;SDS_P1;SDS_P2;PMS_P1;PMS_P2;Temp;Humidity;BMP_temperature;BMP_pressure;BME280_temperature;BME280_humidity;BME280_pressure;Samples;Min_cycle;Max_cycle;Signal;HPM_P1;HPM_P2
2022/01/15 00:00:04;;;;;;;101.03;9.27;;;10.40;99.90;;;;;;4776116;30;20113;-96
2022/01/15 00:02:29;;;;;;;62.10;9.07;;;7.90;99.90;;;;;;4775456;30;20108;-96
2022/01/15 00:04:55;;;;;;;128.82;10.23;;;9.40;99.90;;;;;;4775558;30;20051;-95
2022/01/15 00:07:21;;;;;;;124.68;11.35;;;9.90;99.90;;;;;;4776017;30;20108;-95
2022/01/15 00:09:50;;;;;;;164.77;12.43;;;10.20;99.90;;;;;;4776009;30;20051;-96
2022/01/15 00:12:18;;;;;;;220.55;12.15;;;6.70;99.90;;;;;;4776508;30;20142;-95
2022/01/15 00:14:45;;;;;;;121.97;8.68;;;8.50;99.90;;;;;;4775830;30;20134;-96
2022/01/15 00:17:31;;;;;;;201.75;10.38;;;8.50;99.90;;;;;;4776038;30;20055;-95
2022/01/15 00:19:57;;;;;;;231.13;10.75;;;7.80;99.90;;;;;;4775696;30;20054;-95
2022/01/15 00:22:22;;;;;;;212.82;10.98;;;6.80;99.90;;;;;;4775787;30;20130;-96
2022/01/15 00:24:48;;;;;;;193.95;11.02;;;9.00;99.90;;;;;;4775880;30;20119;-94
2022/01/15 00:27:15;;;;;;;102.43;8.02;;;8.40;99.90;;;;;;4775933;30;20070;-95
2022/01/15 00:29:40;;;;;;;89.93;8.10;;;6.70;99.90;;;;;;4775438;30;20386;-96
2022/01/15 00:32:07;;;;;;;91.45;8.75;;;10.20;99.90;;;;;;4775363;30;20047;-95
2022/01/15 00:34:34;;;;;;;151.57;10.25;;;6.40;99.90;;;;;;4771920;30;20071;-95
2022/01/15 00:37:00;;;;;;;64.47;7.88;;;6.90;99.90;;;;;;4775348;30;20133;-95
2022/01/15 00:39:26;;;;;;;120.65;8.48;;;10.90;99.90;;;;;;4775663;30;20484;-95
2022/01/15 00:41:52;;;;;;;170.07;9.27;;;7.60;99.90;;;;;;4775457;30;20097;-94
2022/01/15 00:44:18;;;;;;;250.88;11.07;;;8.50;99.90;;;;;;4774980;30;20524;-96
2022/01/15 00:46:45;;;;;;;208.50;9.35;;;9.90;99.90;;;;;;4776445;30;20043;-94
2022/01/15 00:49:11;;;;;;;254.25;10.88;;;9.60;99.90;;;;;;4774919;30;20727;-95
2022/01/15 00:51:38;;;;;;;217.02;11.70;;;7.40;99.90;;;;;;4775487;30;20055;-95
2022/01/15 00:54:04;;;;;;;160.15;7.97;;;8.00;99.90;;;;;;4774934;30;20058;-94
2022/01/15 00:56:30;;;;;;;229.90;9.48;;;7.00;99.90;;;;;;4775046;30;20043;-94
2022/01/15 00:58:56;;;;;;;181.82;9.45;;;8.00;99.90;;;;;;4774394;30;20061;-95
2022/01/15 01:01:21;;;;;;;139.73;8.70;;;9.20;99.90;;;;;;4775123;30;20043;-95
2022/01/15 01:03:48;;;;;;;197.27;9.70;;;6.70;99.90;;;;;;4775322;30;20055;-95
2022/01/15 01:06:14;;;;;;;150.57;8.38;;;9.90;99.90;;;;;;4774643;30;20043;-95
2022/01/15 01:08:40;;;;;;;186.82;9.43;;;9.70;99.90;;;;;;4775118;30;20107;-95
2022/01/15 01:11:12;;;;;;;331.98;11.30;;;8.30;99.90;;;;;;4774901;30;20405;-94
2022/01/15 01:20:04;;;;;;;203.32;9.95;;;7.40;99.90;;;;;;4774234;29;20577;-95
2022/01/15 01:22:51;;;;;;;322.92;12.02;;;8.10;99.90;;;;;;4789683;30;20102;-95
2022/01/15 01:24:47;;;;;;;178.18;7.65;;;10.30;99.90;;;;;;4789311;30;20079;-96
2022/01/15 01:27:22;;;;;;;239.15;7.82;;;5.50;99.90;;;;;;4774381;30;20408;-95
2022/01/15 01:30:05;;;;;;;189.82;8.38;;;7.40;99.90;;;;;;4774481;30;20047;-95
2022/01/15 01:32:46;;;;;;;228.07;8.82;;;8.30;99.90;;;;;;4774851;30;20078;-96
2022/01/15 01:35:18;;;;;;;117.45;5.93;;;8.20;99.90;;;;;;4774176;30;20063;-95
2022/01/15 01:37:49;;;;;;;143.40;7.20;;;6.80;99.90;;;;;;4774436;30;20055;-96
2022/01/15 01:42:44;;;;;;;82.15;5.93;;;7.10;99.90;;;;;;4789342;30;20066;-95
2022/01/15 01:45:14;;;;;;;42.47;5.78;;;9.00;99.90;;;;;;4774266;30;20054;-96
2022/01/15 01:47:42;;;;;;;14.82;5.00;;;8.00;99.90;;;;;;4774207;30;20043;-96
2022/01/15 01:50:14;;;;;;;20.75;5.70;;;7.10;99.90;;;;;;4773860;30;20078;-96
2022/01/15 01:52:42;;;;;;;22.88;6.15;;;7.80;99.90;;;;;;4774784;30;20055;-95
2022/01/15 01:55:08;;;;;;;18.45;5.55;;;6.40;99.90;;;;;;4774300;30;20047;-96
2022/01/15 01:57:34;;;;;;;20.45;5.72;;;6.50;99.90;;;;;;4774333;30;20051;-95
2022/01/15 02:00:01;;;;;;;17.50;5.47;;;6.50;99.90;;;;;;4773833;30;20074;-95
2022/01/15 02:02:27;;;;;;;18.58;5.85;;;9.10;99.90;;;;;;4774277;30;20051;-95
2022/01/15 02:04:57;;;;;;;15.82;5.28;;;9.40;99.90;;;;;;4773869;30;20047;-96
2022/01/15 02:07:25;;;;;;;23.20;6.20;;;8.30;99.90;;;;;;4773573;30;20047;-95
2022/01/15 02:09:52;;;;;;;16.58;5.22;;;6.50;99.90;;;;;;4773706;30;20051;-95
2022/01/15 02:12:18;;;;;;;15.73;5.22;;;5.10;99.90;;;;;;4774394;30;20090;-95
2022/01/15 02:14:43;;;;;;;18.08;5.53;;;6.60;99.90;;;;;;4774107;30;20078;-96
2022/01/15 02:17:12;;;;;;;12.35;4.82;;;6.60;99.90;;;;;;4773852;30;20062;-95
2022/01/15 02:19:46;;;;;;;19.02;5.20;;;7.60;99.90;;;;;;4773754;30;20054;-96
2022/01/15 02:24:56;;;;;;;11.60;4.13;;;5.00;99.90;;;;;;4788753;30;20059;-96
2022/01/15 02:27:22;;;;;;;10.13;4.43;;;10.50;99.90;;;;;;4773317;30;20047;-95
2022/01/15 02:29:48;;;;;;;10.15;4.13;;;8.00;99.90;;;;;;4773873;30;20138;-96
2022/01/15 02:32:13;;;;;;;14.57;4.30;;;6.40;99.90;;;;;;4774110;30;20059;-96
2022/01/15 02:34:39;;;;;;;17.65;5.30;;;7.70;99.90;;;;;;4773714;30;20123;-94
2022/01/15 02:37:05;;;;;;;23.17;5.38;;;9.60;99.90;;;;;;4773996;30;20111;-96
2022/01/15 02:39:35;;;;;;;14.40;4.72;;;7.00;99.90;;;;;;4773639;30;20059;-96
2022/01/15 02:42:01;;;;;;;16.45;4.43;;;9.10;99.90;;;;;;4773601;30;20075;-96
2022/01/15 02:44:28;;;;;;;15.88;4.32;;;6.50;99.90;;;;;;4773680;30;20112;-96
2022/01/15 02:49:20;;;;;;;12.07;3.35;;;6.70;99.90;;;;;;4788318;30;20051;-95
2022/01/15 02:51:45;;;;;;;8.50;3.42;;;9.30;99.90;;;;;;4773438;30;20112;-95
2022/01/15 02:54:11;;;;;;;23.35;3.75;;;9.80;99.90;;;;;;4773185;30;20043;-95
2022/01/15 02:56:40;;;;;;;19.02;3.50;;;7.70;99.90;;;;;;4773322;30;20047;-95
2022/01/15 02:59:09;;;;;;;34.90;3.97;;;6.60;99.90;;;;;;4773916;30;20421;-95
2022/01/15 03:01:36;;;;;;;30.90;3.53;;;9.60;99.90;;;;;;4773469;30;20049;-95
2022/01/15 03:04:02;;;;;;;8.98;3.17;;;8.80;99.90;;;;;;4773882;30;20449;-96
2022/01/15 03:06:28;;;;;;;16.40;3.38;;;7.30;99.90;;;;;;4773127;30;20079;-95
2022/01/15 03:08:54;;;;;;;10.48;2.95;;;8.40;99.90;;;;;;4773243;30;20051;-94
2022/01/15 03:11:21;;;;;;;9.98;2.88;;;9.30;99.90;;;;;;4773352;30;20059;-95
2022/01/15 03:13:47;;;;;;;8.80;2.53;;;8.20;99.90;;;;;;4772304;30;20051;-95
2022/01/15 03:16:16;;;;;;;18.75;3.17;;;8.20;99.90;;;;;;4773076;30;20051;-95
2022/01/15 03:18:50;;;;;;;24.13;3.42;;;10.50;99.90;;;;;;4773598;30;20400;-93
2022/01/15 03:21:16;;;;;;;25.73;3.17;;;7.30;99.90;;;;;;4773123;30;20485;-95
2022/01/15 03:23:42;;;;;;;13.75;3.10;;;7.70;99.90;;;;;;4773341;30;20081;-95
2022/01/15 03:26:09;;;;;;;13.30;3.22;;;7.20;99.90;;;;;;4773292;30;20055;-95
2022/01/15 03:28:35;;;;;;;22.08;3.63;;;7.40;99.90;;;;;;4773370;30;20125;-95
2022/01/15 03:31:01;;;;;;;11.15;2.92;;;8.80;99.90;;;;;;4773714;30;20059;-95
2022/01/15 03:33:27;;;;;;;13.05;3.10;;;8.30;99.90;;;;;;4771717;30;20062;-95
2022/01/15 03:35:55;;;;;;;59.65;4.45;;;7.30;99.90;;;;;;4772858;30;20063;-95
2022/01/15 03:38:21;;;;;;;96.07;4.65;;;8.70;99.90;;;;;;4775275;30;20142;-95
2022/01/15 03:40:47;;;;;;;159.93;5.80;;;7.80;99.90;;;;;;4776569;30;20087;-94
2022/01/15 03:43:13;;;;;;;259.90;9.15;;;8.40;99.90;;;;;;4776486;30;20130;-94
2022/01/15 03:45:39;;;;;;;231.80;5.55;;;8.10;99.90;;;;;;4776709;30;20119;-95
2022/01/15 03:48:05;;;;;;;218.02;5.40;;;7.60;99.90;;;;;;4775899;30;20056;-94
2022/01/15 03:50:31;;;;;;;186.60;7.00;;;6.40;99.90;;;;;;4791117;30;20059;-95
2022/01/15 03:52:56;;;;;;;78.63;4.00;;;7.80;99.90;;;;;;4776206;30;20055;-96
2022/01/15 03:55:23;;;;;;;103.55;4.40;;;6.00;99.90;;;;;;4776229;30;20051;-95
2022/01/15 03:57:49;;;;;;;80.88;4.93;;;7.40;99.90;;;;;;4775946;30;20050;-94
2022/01/15 04:00:17;;;;;;;18.45;2.97;;;5.90;99.90;;;;;;4775833;30;20197;-95
2022/01/15 04:02:43;;;;;;;14.05;2.60;;;7.80;99.90;;;;;;4775877;30;20051;-95
2022/01/15 04:05:11;;;;;;;11.15;2.40;;;8.20;99.90;;;;;;4776262;30;20051;-94
2022/01/15 04:07:37;;;;;;;17.35;2.20;;;7.70;99.90;;;;;;4775751;30;20561;-95
2022/01/15 04:10:05;;;;;;;70.32;3.15;;;8.60;99.90;;;;;;4775751;30;20043;-95
2022/01/15 04:12:31;;;;;;;44.03;2.33;;;5.90;99.90;;;;;;4775659;30;20098;-95
2022/01/15 04:14:57;;;;;;;16.40;2.17;;;7.30;99.90;;;;;;4776164;30;20086;-95
2022/01/15 04:17:23;;;;;;;16.20;2.38;;;7.50;99.90;;;;;;4775797;30;20094;-95
2022/01/15 04:19:48;;;;;;;11.88;2.13;;;7.00;99.90;;;;;;4775502;30;20043;-95
2022/01/15 04:22:14;;;;;;;20.00;3.55;;;6.90;99.90;;;;;;4775065;30;20055;-95
2022/01/15 04:24:40;;;;;;;19.15;2.40;;;7.60;99.90;;;;;;4775962;30;20053;-95
2022/01/15 04:27:06;;;;;;;48.00;2.90;;;8.00;99.90;;;;;;4775649;30;20066;-94
2022/01/15 04:29:33;;;;;;;122.70;4.32;;;8.40;99.90;;;;;;4775251;30;20120;-94
2022/01/15 04:32:00;;;;;;;44.55;3.25;;;6.30;99.90;;;;;;4775784;30;20159;-96
2022/01/15 04:34:29;;;;;;;22.35;1.95;;;6.80;99.90;;;;;;4769152;30;20055;-94
2022/01/15 04:37:05;;;;;;;92.60;3.50;;;8.40;99.90;;;;;;4790390;30;20107;-95
2022/01/15 04:39:31;;;;;;;147.88;5.07;;;7.70;99.90;;;;;;4775425;30;20047;-95
2022/01/15 04:41:57;;;;;;;153.85;4.00;;;8.40;99.90;;;;;;4775584;30;20043;-95
2022/01/15 04:44:23;;;;;;;146.82;4.53;;;6.40;99.90;;;;;;4775445;30;20043;-95
2022/01/15 04:46:49;;;;;;;190.90;6.30;;;5.70;99.90;;;;;;4775193;30;20044;-95
2022/01/15 04:49:14;;;;;;;101.47;3.13;;;8.20;99.90;;;;;;4774812;30;20112;-96
2022/01/15 04:51:40;;;;;;;134.23;4.13;;;9.50;99.90;;;;;;4775484;30;20051;-95
2022/01/15 04:54:07;;;;;;;159.63;4.43;;;6.50;99.90;;;;;;4774985;30;20051;-95
2022/01/15 04:56:33;;;;;;;121.90;4.03;;;10.00;99.90;;;;;;4775097;30;20142;-95
2022/01/15 04:58:58;;;;;;;271.60;9.98;;;7.60;99.90;;;;;;4775079;30;20075;-94
2022/01/15 05:01:24;;;;;;;223.23;8.73;;;8.70;99.90;;;;;;4775011;30;20053;-94
2022/01/15 05:03:51;;;;;;;192.32;6.38;;;7.90;99.90;;;;;;4775218;30;20055;-95
2022/01/15 05:06:17;;;;;;;140.45;4.65;;;7.20;99.90;;;;;;4774835;30;20066;-96
2022/01/15 05:08:45;;;;;;;118.97;4.55;;;7.80;99.90;;;;;;4774809;30;20103;-95
2022/01/15 05:11:20;;;;;;;40.85;2.95;;;7.10;99.90;;;;;;4774911;30;20047;-95
2022/01/15 05:13:45;;;;;;;36.08;2.08;;;9.70;99.90;;;;;;4775106;30;20512;-96
2022/01/15 05:16:11;;;;;;;126.25;5.05;;;8.50;99.90;;;;;;4774416;30;20047;-95
2022/01/15 05:18:37;;;;;;;136.55;4.95;;;9.90;99.90;;;;;;4775077;30;20055;-95
2022/01/15 05:21:03;;;;;;;152.45;5.88;;;9.00;99.90;;;;;;4774697;30;20051;-95
2022/01/15 05:23:28;;;;;;;210.00;6.25;;;7.10;99.90;;;;;;4774717;30;20043;-94
2022/01/15 05:25:54;;;;;;;195.32;6.00;;;5.50;99.90;;;;;;4774519;30;20044;-96
2022/01/15 05:28:20;;;;;;;151.93;3.65;;;8.90;99.90;;;;;;4774471;30;20055;-96
2022/01/15 05:30:46;;;;;;;101.95;3.47;;;6.70;99.90;;;;;;4774338;30;20081;-94
2022/01/15 05:33:11;;;;;;;113.70;3.58;;;6.40;99.90;;;;;;4774359;30;20115;-95
2022/01/15 05:35:37;;;;;;;174.68;4.35;;;7.10;99.90;;;;;;4772600;30;20493;-94
2022/01/15 05:38:03;;;;;;;59.13;2.13;;;7.20;99.90;;;;;;4773998;30;20057;-96
2022/01/15 05:40:29;;;;;;;63.33;2.78;;;6.90;99.90;;;;;;4774327;30;20138;-96
2022/01/15 05:42:55;;;;;;;19.50;1.67;;;7.70;99.90;;;;;;4774622;30;20066;-95
2022/01/15 05:45:21;;;;;;;30.08;2.50;;;5.70;99.90;;;;;;4774056;30;20047;-96
2022/01/15 05:47:48;;;;;;;37.03;2.80;;;8.70;99.90;;;;;;4774319;30;20512;-96
2022/01/15 05:50:14;;;;;;;10.48;1.80;;;7.30;99.90;;;;;;4774030;30;20047;-94
2022/01/15 05:52:40;;;;;;;37.28;2.05;;;8.30;99.90;;;;;;4774251;30;20112;-96
2022/01/15 05:55:07;;;;;;;53.78;4.05;;;7.70;99.90;;;;;;4774217;30;20143;-95
2022/01/15 05:57:33;;;;;;;4.57;1.90;;;6.40;99.90;;;;;;4773589;30;20055;-94
2022/01/15 05:59:58;;;;;;;3.70;1.92;;;4.90;99.90;;;;;;4773972;29;20550;-95
2022/01/15 06:02:24;;;;;;;7.82;2.17;;;5.30;99.90;;;;;;4773292;30;20056;-95
2022/01/15 06:04:50;;;;;;;3.63;1.92;;;8.60;99.90;;;;;;4773767;30;20086;-95
2022/01/15 06:07:16;;;;;;;5.45;2.67;;;5.20;99.90;;;;;;4773673;30;20100;-95
2022/01/15 06:09:42;;;;;;;4.65;2.17;;;8.90;99.90;;;;;;4773711;30;20142;-95
2022/01/15 06:12:09;;;;;;;3.80;1.88;;;9.60;99.90;;;;;;4774053;30;20448;-95
2022/01/15 06:14:35;;;;;;;4.80;2.20;;;7.60;99.90;;;;;;4773703;30;20562;-95
2022/01/15 06:17:03;;;;;;;9.40;2.63;;;6.10;99.90;;;;;;4773804;30;20055;-95
2022/01/15 06:19:29;;;;;;;4.45;1.88;;;5.30;99.90;;;;;;4773619;30;20093;-95
2022/01/15 06:21:56;;;;;;;4.50;2.13;;;6.80;99.90;;;;;;4774303;30;20051;-95
2022/01/15 06:24:22;;;;;;;5.93;2.65;;;5.60;99.90;;;;;;4773589;30;20138;-95
2022/01/15 06:26:48;;;;;;;5.55;2.53;;;9.00;99.90;;;;;;4773690;30;20047;-96
2022/01/15 06:29:14;;;;;;;4.50;2.05;;;5.80;99.90;;;;;;4773326;30;20462;-96
2022/01/15 06:31:40;;;;;;;4.57;2.35;;;7.70;99.90;;;;;;4774258;30;20424;-96
2022/01/15 06:34:05;;;;;;;4.53;2.30;;;8.90;99.90;;;;;;4773567;30;20087;-96
2022/01/15 06:36:31;;;;;;;3.90;2.10;;;7.40;99.90;;;;;;4773478;30;20063;-96
2022/01/15 06:38:57;;;;;;;2.95;2.08;;;7.90;99.90;;;;;;4772849;30;20072;-96
2022/01/15 06:41:23;;;;;;;3.85;2.30;;;5.60;99.90;;;;;;4773318;30;20138;-96
2022/01/15 06:43:49;;;;;;;3.83;1.83;;;5.10;99.90;;;;;;4773505;30;20089;-96
2022/01/15 06:46:14;;;;;;;5.82;2.33;;;8.60;99.90;;;;;;4773642;30;20138;-96
2022/01/15 06:48:40;;;;;;;3.45;2.35;;;8.70;99.90;;;;;;4774065;30;20047;-95
2022/01/15 06:51:06;;;;;;;3.10;1.88;;;5.90;99.90;;;;;;4773394;30;20043;-94
2022/01/15 06:53:32;;;;;;;2.60;1.75;;;5.90;99.90;;;;;;4773531;30;20055;-95
2022/01/15 06:55:57;;;;;;;3.38;2.03;;;8.30;99.90;;;;;;4773655;30;20058;-94
2022/01/15 06:58:23;;;;;;;2.65;1.90;;;7.20;99.90;;;;;;4773706;30;20140;-94
2022/01/15 07:00:50;;;;;;;2.63;1.60;;;9.60;99.90;;;;;;4773810;30;20047;-94
2022/01/15 07:03:16;;;;;;;4.93;2.05;;;6.50;99.90;;;;;;4773838;30;20115;-94
2022/01/15 07:05:41;;;;;;;5.40;2.42;;;4.30;99.90;;;;;;4773403;30;20059;-95
2022/01/15 07:08:07;;;;;;;6.65;2.70;;;8.70;99.90;;;;;;4773430;30;20467;-95
2022/01/15 07:10:34;;;;;;;5.00;2.30;;;6.10;99.90;;;;;;4773043;30;20051;-94
2022/01/15 07:13:02;;;;;;;7.38;2.55;;;8.70;99.90;;;;;;4774844;30;20147;-95
2022/01/15 07:15:28;;;;;;;4.55;2.20;;;5.90;99.90;;;;;;4777834;30;20070;-95
2022/01/15 07:17:54;;;;;;;9.85;2.40;;;6.70;99.90;;;;;;4776875;30;20489;-96
2022/01/15 07:20:20;;;;;;;4.90;2.35;;;7.40;99.90;;;;;;4777009;30;20067;-95
2022/01/15 07:22:46;;;;;;;6.10;2.50;;;5.80;99.90;;;;;;4777150;30;20062;-94
2022/01/15 07:25:13;;;;;;;7.05;2.63;;;7.70;99.90;;;;;;4776770;30;20051;-95
2022/01/15 07:27:39;;;;;;;5.85;2.85;;;5.20;99.90;;;;;;4776871;30;20051;-95
2022/01/15 07:30:06;;;;;;;6.30;2.40;;;8.60;99.90;;;;;;4776441;30;20096;-95
2022/01/15 07:32:32;;;;;;;4.75;2.60;;;5.40;99.90;;;;;;4776388;30;20055;-94
2022/01/15 07:34:59;;;;;;;6.68;2.95;;;6.50;99.90;;;;;;4769752;30;20075;-93
2022/01/15 07:37:25;;;;;;;8.70;3.28;;;5.40;99.90;;;;;;4776721;30;20055;-94
2022/01/15 07:39:52;;;;;;;6.50;3.03;;;6.40;99.90;;;;;;4776081;30;20051;-93
2022/01/15 07:42:18;;;;;;;7.18;3.10;;;5.20;99.90;;;;;;4776033;30;20200;-94
2022/01/15 07:44:44;;;;;;;5.40;2.60;;;7.40;99.90;;;;;;4776200;30;20059;-94
2022/01/15 07:47:12;;;;;;;84.60;6.32;;;4.70;99.90;;;;;;4775845;30;20066;-94
2022/01/15 07:49:38;;;;;;;8.55;3.70;;;6.80;99.90;;;;;;4775280;30;20051;-95
2022/01/15 07:52:04;;;;;;;2.85;2.13;;;7.20;99.90;;;;;;4775817;30;20047;-94
2022/01/15 07:54:30;;;;;;;4.97;2.22;;;5.10;99.90;;;;;;4774236;30;20500;-96
2022/01/15 07:56:56;;;;;;;4.55;2.35;;;8.60;99.90;;;;;;4776322;30;20104;-95
2022/01/15 07:59:22;;;;;;;3.78;2.00;;;7.40;99.90;;;;;;4775876;30;20071;-93
2022/01/15 08:01:48;;;;;;;4.45;2.58;;;6.20;99.90;;;;;;4775721;30;20558;-94
2022/01/15 08:04:14;;;;;;;5.10;2.40;;;9.10;99.90;;;;;;4775990;30;20054;-93
2022/01/15 08:06:41;;;;;;;7.85;2.95;;;6.20;99.90;;;;;;4776044;30;20062;-94
2022/01/15 08:09:07;;;;;;;8.73;3.63;;;8.50;99.90;;;;;;4775903;30;20065;-94
2022/01/15 08:11:33;;;;;;;11.25;3.88;;;6.10;99.90;;;;;;4775877;30;20043;-95
2022/01/15 08:13:59;;;;;;;11.80;4.18;;;6.00;99.90;;;;;;4775553;30;20115;-94
2022/01/15 08:16:25;;;;;;;9.90;4.30;;;8.20;99.90;;;;;;4775593;30;20100;-94
2022/01/15 08:18:50;;;;;;;10.52;4.35;;;7.60;99.90;;;;;;4775575;30;20051;-95
2022/01/15 08:21:16;;;;;;;14.23;5.63;;;7.10;99.90;;;;;;4775638;30;20505;-95
2022/01/15 08:23:42;;;;;;;7.97;3.67;;;7.40;99.90;;;;;;4774831;30;20059;-95
2022/01/15 08:26:08;;;;;;;9.80;3.97;;;8.50;99.90;;;;;;4776157;30;20058;-94
2022/01/15 08:28:34;;;;;;;11.20;4.28;;;5.10;99.90;;;;;;4775354;30;20051;-94
2022/01/15 08:31:00;;;;;;;16.77;5.63;;;4.90;99.90;;;;;;4776402;30;20094;-96
2022/01/15 08:33:26;;;;;;;11.77;4.78;;;8.40;99.90;;;;;;4775407;30;20047;-96
2022/01/15 08:35:52;;;;;;;29.92;7.35;;;5.40;99.90;;;;;;4772286;30;20059;-96
2022/01/15 08:38:18;;;;;;;11.23;5.05;;;3.50;99.90;;;;;;4775663;30;20086;-96
2022/01/15 08:40:43;;;;;;;35.45;6.55;;;7.10;99.90;;;;;;4776431;30;20128;-94
2022/01/15 08:43:09;;;;;;;40.53;6.25;;;4.80;99.90;;;;;;4774933;30;20087;-93
2022/01/15 08:45:38;;;;;;;40.65;6.97;;;7.40;99.90;;;;;;4775261;30;20051;-94
2022/01/15 08:48:05;;;;;;;11.73;5.13;;;6.90;99.90;;;;;;4775146;30;20086;-93
2022/01/15 08:50:31;;;;;;;9.07;4.30;;;6.60;99.90;;;;;;4775282;30;20039;-94
2022/01/15 08:52:57;;;;;;;6.78;4.05;;;5.00;99.90;;;;;;4775370;30;20064;-93
2022/01/15 08:55:28;;;;;;;4.88;2.75;;;6.90;99.90;;;;;;4773964;30;20470;-94
2022/01/15 08:57:56;;;;;;;3.67;2.20;;;5.70;99.90;;;;;;4774670;30;20138;-93
2022/01/15 09:00:22;;;;;;;4.60;2.63;;;6.70;99.90;;;;;;4774734;30;20055;-94
2022/01/15 09:02:48;;;;;;;5.38;3.22;;;6.80;99.90;;;;;;4774528;30;20112;-94
2022/01/15 09:05:15;;;;;;;7.45;3.50;;;9.10;99.90;;;;;;4774541;30;20055;-93
2022/01/15 09:07:41;;;;;;;5.68;3.63;;;9.00;99.90;;;;;;4774359;30;20052;-93
2022/01/15 09:10:07;;;;;;;10.88;5.07;;;8.60;99.90;;;;;;4774824;30;20086;-94
2022/01/15 09:12:34;;;;;;;7.18;3.47;;;5.70;99.90;;;;;;4774428;30;20047;-93
2022/01/15 09:15:00;;;;;;;21.42;4.65;;;4.80;99.90;;;;;;4774082;30;20120;-93
2022/01/15 09:17:26;;;;;;;4.50;2.40;;;7.30;99.90;;;;;;4774311;30;20091;-92
2022/01/15 09:19:53;;;;;;;6.13;2.95;;;7.80;99.90;;;;;;4774117;30;20131;-93
2022/01/15 09:22:18;;;;;;;14.20;4.45;;;5.70;99.90;;;;;;4774873;30;20112;-95
2022/01/15 09:24:45;;;;;;;19.55;6.20;;;7.90;99.90;;;;;;4775156;30;20052;-95
2022/01/15 09:30:12;;;;;;;29.13;5.50;;;7.90;99.90;;;;;;4789251;30;20063;-93
2022/01/15 09:32:41;;;;;;;48.08;6.68;;;6.80;99.90;;;;;;4789679;30;20460;-94
2022/01/15 09:35:09;;;;;;;95.15;7.45;;;4.90;99.90;;;;;;4774494;30;20079;-94
2022/01/15 09:37:34;;;;;;;15.77;4.63;;;7.10;99.90;;;;;;4773667;30;20429;-94
2022/01/15 09:40:00;;;;;;;8.25;3.00;;;5.80;99.90;;;;;;4774305;30;20047;-93
2022/01/15 09:42:26;;;;;;;25.23;5.00;;;5.00;99.90;;;;;;4774743;30;20043;-94
2022/01/15 09:44:54;;;;;;;27.70;5.80;;;6.60;99.90;;;;;;4773875;30;20051;-93
2022/01/15 09:47:21;;;;;;;37.67;4.35;;;9.30;99.90;;;;;;4773900;30;20493;-94
2022/01/15 09:49:49;;;;;;;40.25;6.07;;;5.90;99.90;;;;;;4773950;30;20054;-94
2022/01/15 09:52:17;;;;;;;11.40;4.80;;;6.90;99.90;;;;;;4774392;30;20391;-94
2022/01/15 09:54:43;;;;;;;7.70;3.90;;;4.90;99.90;;;;;;4773914;30;20421;-94
2022/01/15 09:57:09;;;;;;;5.28;2.70;;;6.80;99.90;;;;;;4773976;30;20050;-94
2022/01/15 09:59:36;;;;;;;5.50;3.13;;;6.70;99.90;;;;;;4773914;30;20055;-94
2022/01/15 10:02:03;;;;;;;10.38;4.15;;;4.70;99.90;;;;;;4774005;30;20108;-94
2022/01/15 10:04:32;;;;;;;14.90;4.45;;;6.10;99.90;;;;;;4772854;30;20052;-93
2022/01/15 10:07:11;;;;;;;9.80;4.18;;;5.70;99.90;;;;;;4773633;30;20090;-94
2022/01/15 10:09:37;;;;;;;8.25;4.20;;;4.80;99.90;;;;;;4774022;30;20055;-94
2022/01/15 10:12:03;;;;;;;8.07;3.25;;;8.20;99.90;;;;;;4774451;30;20062;-93
2022/01/15 10:14:31;;;;;;;11.13;4.18;;;5.10;99.90;;;;;;4773628;30;20055;-95
2022/01/15 10:17:00;;;;;;;7.13;2.90;;;8.10;99.90;;;;;;4774387;30;20062;-94
2022/01/15 10:19:34;;;;;;;25.02;3.60;;;7.40;99.90;;;;;;4773898;30;20126;-95
2022/01/15 10:22:04;;;;;;;103.57;6.75;;;4.40;99.90;;;;;;4774052;30;20432;-95
2022/01/15 10:24:31;;;;;;;47.25;4.30;;;7.10;99.90;;;;;;4774200;30;20089;-94
2022/01/15 10:27:23;;;;;;;139.68;8.23;;;7.10;99.90;;;;;;4773619;30;20050;-95
2022/01/15 10:29:57;;;;;;;150.38;10.55;;;6.80;99.90;;;;;;4773602;30;20138;-94
2022/01/15 10:32:24;;;;;;;172.65;10.95;;;5.30;99.90;;;;;;4773995;30;20404;-93
2022/01/15 10:34:55;;;;;;;86.07;7.53;;;6.90;99.90;;;;;;4773159;30;20079;-95
2022/01/15 10:37:25;;;;;;;39.08;4.80;;;4.90;99.90;;;;;;4770713;30;20067;-93
2022/01/15 10:39:57;;;;;;;28.65;5.72;;;6.40;99.90;;;;;;4788430;30;20515;-94
2022/01/15 10:42:23;;;;;;;50.30;5.80;;;7.10;99.90;;;;;;4773899;30;20400;-94
2022/01/15 10:44:52;;;;;;;46.05;5.53;;;8.20;99.90;;;;;;4773497;30;20055;-94
2022/01/15 10:47:20;;;;;;;23.52;5.10;;;7.10;99.90;;;;;;4774397;30;20082;-95
2022/01/15 10:49:47;;;;;;;33.22;5.97;;;7.00;99.90;;;;;;4777299;30;20485;-93
2022/01/15 10:52:18;;;;;;;23.63;5.85;;;5.80;99.90;;;;;;4776915;30;20051;-94
2022/01/15 10:55:04;;;;;;;10.60;4.75;;;7.70;99.90;;;;;;4777174;30;20043;-94
2022/01/15 10:57:37;;;;;;;10.80;4.40;;;5.60;99.90;;;;;;4776549;30;20047;-94
2022/01/15 11:00:05;;;;;;;58.25;8.45;;;6.90;99.90;;;;;;4776665;30;20089;-94
2022/01/15 11:02:31;;;;;;;107.57;9.57;;;6.90;99.90;;;;;;4777048;30;20047;-93
2022/01/15 11:04:57;;;;;;;46.92;5.72;;;5.30;99.90;;;;;;4776906;30;20408;-94
2022/01/15 11:07:24;;;;;;;150.05;11.18;;;7.90;99.90;;;;;;4777045;30;20552;-93
2022/01/15 11:09:53;;;;;;;241.23;16.10;;;5.80;99.90;;;;;;4776643;30;20059;-93
2022/01/15 11:12:24;;;;;;;241.57;16.55;;;7.00;99.90;;;;;;4776130;30;20062;-92
2022/01/15 11:14:49;;;;;;;256.77;18.05;;;9.40;99.90;;;;;;4775735;30;20055;-93
2022/01/15 11:17:15;;;;;;;332.77;20.40;;;6.30;99.90;;;;;;4776610;30;20055;-92
2022/01/15 11:19:45;;;;;;;122.60;12.38;;;4.80;99.90;;;;;;4776583;30;20523;-89
2022/01/15 11:22:11;;;;;;;97.00;14.50;;;7.10;99.90;;;;;;4776397;30;20047;-93
2022/01/15 11:24:39;;;;;;;70.78;13.77;;;4.50;99.90;;;;;;4776551;30;20416;-94
2022/01/15 11:27:05;;;;;;;136.27;15.88;;;4.90;99.90;;;;;;4776166;30;20094;-93
2022/01/15 11:29:33;;;;;;;104.32;11.63;;;7.10;99.90;;;;;;4776403;30;20055;-93
2022/01/15 11:32:00;;;;;;;102.05;13.32;;;4.60;99.90;;;;;;4776090;30;20058;-93
2022/01/15 11:34:27;;;;;;;40.97;9.15;;;5.50;99.90;;;;;;4775880;30;20055;-93
2022/01/15 11:36:54;;;;;;;196.32;15.35;;;5.90;99.90;;;;;;4772568;30;20425;-92
2022/01/15 11:39:22;;;;;;;71.93;11.20;;;4.40;99.90;;;;;;4775908;30;20051;-93
2022/01/15 11:41:53;;;;;;;130.93;12.98;;;6.30;99.90;;;;;;4775980;30;20050;-94
2022/01/15 11:44:39;;;;;;;69.05;9.80;;;6.90;99.90;;;;;;4776230;30;20338;-93
2022/01/15 11:47:17;;;;;;;57.97;9.47;;;6.60;99.90;;;;;;4775966;30;20417;-93
2022/01/15 11:49:45;;;;;;;194.50;18.05;;;4.20;99.90;;;;;;4776016;30;20130;-94
2022/01/15 11:52:12;;;;;;;134.40;14.70;;;5.40;99.90;;;;;;4776171;30;20047;-93
2022/01/15 11:54:53;;;;;;;150.43;16.92;;;6.40;99.90;;;;;;4776290;30;20050;-94
2022/01/15 11:57:21;;;;;;;247.07;19.65;;;7.50;99.90;;;;;;4776102;30;20055;-93
2022/01/15 11:59:49;;;;;;;254.20;22.00;;;9.10;99.90;;;;;;4774738;30;20382;-92
2022/01/15 12:02:32;;;;;;;323.00;27.55;;;5.40;99.90;;;;;;4775079;30;20047;-93
2022/01/15 12:05:17;;;;;;;216.07;21.75;;;6.00;99.90;;;;;;4775616;30;20096;-93
2022/01/15 12:07:46;;;;;;;119.88;15.95;;;7.20;99.90;;;;;;4775546;30;20108;-94
2022/01/15 12:10:47;;;;;;;125.80;17.23;;;4.70;99.90;;;;;;4775948;30;20054;-95
2022/01/15 12:13:41;;;;;;;149.75;16.90;;;5.20;99.90;;;;;;4777115;30;20457;-95
2022/01/15 12:16:26;;;;;;;193.80;22.88;;;5.90;99.90;;;;;;4776028;30;20058;-94
2022/01/15 12:18:54;;;;;;;333.35;28.60;;;3.20;99.90;;;;;;4775157;30;20059;-96
2022/01/15 12:21:44;;;;;;;165.80;24.10;;;7.00;99.90;;;;;;4775253;30;20055;-95
2022/01/15 12:25:01;;;;;;;208.50;26.45;;;9.00;99.90;;;;;;4780719;30;20147;-96
2022/01/15 12:28:19;;;;;;;;;;;;;;;;;;;;;
2022/01/15 12:31:17;;;;;;;165.20;22.00;;;5.40;99.90;;;;;;4790475;30;20063;-95
2022/01/15 13:24:47;;;;;;;41.22;8.68;;;5.30;99.90;;;;;;4779644;29;20180;-96
2022/01/15 13:28:26;;;;;;;32.75;7.88;;;4.40;99.90;;;;;;4774939;30;20100;-95
2022/01/15 13:31:09;;;;;;;25.73;7.10;;;6.90;99.90;;;;;;4768954;30;20056;-92
2022/01/15 13:33:39;;;;;;;65.43;10.38;;;4.10;99.90;;;;;;4773985;30;20054;-89
2022/01/15 13:36:07;;;;;;;176.63;18.17;;;4.50;99.90;;;;;;4773012;30;20051;-89
2022/01/15 13:38:34;;;;;;;268.42;18.27;;;4.20;99.90;;;;;;4773188;30;20108;-89
2022/01/15 13:41:17;;;;;;;46.15;8.68;;;4.60;99.90;;;;;;4772864;30;20047;-80
2022/01/15 13:43:46;;;;;;;33.83;8.63;;;5.70;99.90;;;;;;4774190;30;20059;-94
2022/01/15 13:46:16;;;;;;;44.28;8.85;;;8.60;99.90;;;;;;4789682;30;20055;-94
2022/01/15 13:48:44;;;;;;;49.67;9.35;;;6.80;99.90;;;;;;4773961;30;20055;-94
2022/01/15 13:54:14;;;;;;;44.60;9.00;;;4.70;99.90;;;;;;4789408;30;20070;-95
2022/01/15 13:57:11;;;;;;;197.45;16.08;;;6.90;99.90;;;;;;4774115;30;20413;-95
2022/01/15 13:59:40;;;;;;;261.38;18.13;;;9.40;99.90;;;;;;4774168;30;20104;-95
2022/01/15 14:02:06;;;;;;;64.75;11.25;;;4.80;99.90;;;;;;4773788;30;20047;-95